Aérodrome :
LOGIN :

S'inscrire | Disclaimer

   EN    FR    IT 

 










Légende :    VFR   VFR Marginal   IFR   IFR Intensif   IFR Très Intensif
Visi : 
Plafond : 
>= 8 km
>= 3000ft
5 à 8 km
1000 à 3000 ft
1500m à 5 km
500 à 1000 ft
800 à 1500m
200 à 500 ft
< 800m
< 200 ft
Symboles :   Orages  Brouillard  Fortes neiges  Fortes précipitations  Vent > 20 kt
SIGMETs :   Divers  Orages  Givrage  Turbulence  Onde Orograph.  Cendres Volcan.






- Altitude de l'aérodrome : 412 ft
- Code IATA : ORE


LFOJ - Orleans

DERNIER METAR :
  • 221200Z AUTO 05009KT 8000 NSC 03/00 Q1033 NOSIG

METARs EXPIRÉS :
  • 221130Z AUTO 05009KT 8000 NSC 03/00 Q1033 NOSIG
  • 221100Z AUTO 05006KT 7000 NSC 02/00 Q1034 NOSIG
  • 221030Z AUTO 07007KT 5000 BR NSC 01/M00 Q1034 NOSIG
  • 221000Z AUTO 04008KT 4600 BR NSC 00/M01 Q1034 BECMG 9999 NSW
  • 220930Z AUTO 05009KT 4300 BR NSC M01/M01 Q1034 BECMG 9999 NSW

TAF TAF LFOJ
Valide du 22 à 09h jusqu'au 23 à 09h UTC


220800Z 2209/2309 05008KT 4000 BR NSC
BECMG 2209/2211 CAVOK
PROB40
TEMPO 2223/2309 3000 BR



MET'MAP, la Météo Aéronautique d'un coup d'oeil ! - Copyright ORBIFLY Décembre 2007 - Disclaimer

ORBIFLY MET'MAP TEAM :

Programmation & Développement : Alexandra Zaïnal
Sur une idée originale de : Baudouin d'Aumeries
Assistance à la programmation : Marc-Olivier Méhu
Soutien technique & logistique : Manuel Goepfert

Contact : metmap@orbifly.com




SOURCES & CREDITS :

   NOAA